sensor_id;sensor_type;location;lat;lon;timestamp;P1;durP1;ratioP1;P2;durP2;ratioP2
59424;SDS011;45231;44.826;20.312;2023-04-29T00:01:12;9.50;;;4.55;;
59424;SDS011;45231;44.826;20.312;2023-04-29T00:03:38;9.18;;;4.18;;
59424;SDS011;45231;44.826;20.312;2023-04-29T00:06:04;10.97;;;4.30;;
59424;SDS011;45231;44.826;20.312;2023-04-29T00:08:30;9.32;;;4.25;;
59424;SDS011;45231;44.826;20.312;2023-04-29T00:10:56;10.55;;;4.63;;
59424;SDS011;45231;44.826;20.312;2023-04-29T00:13:23;12.40;;;4.97;;
59424;SDS011;45231;44.826;20.312;2023-04-29T00:15:50;9.60;;;4.82;;
59424;SDS011;45231;44.826;20.312;2023-04-29T00:18:16;9.43;;;4.07;;
59424;SDS011;45231;44.826;20.312;2023-04-29T00:20:42;11.13;;;4.55;;
59424;SDS011;45231;44.826;20.312;2023-04-29T00:23:08;11.80;;;4.25;;
59424;SDS011;45231;44.826;20.312;2023-04-29T00:25:35;11.80;;;4.28;;
59424;SDS011;45231;44.826;20.312;2023-04-29T00:28:03;11.20;;;4.70;;
59424;SDS011;45231;44.826;20.312;2023-04-29T00:30:29;9.52;;;4.43;;
59424;SDS011;45231;44.826;20.312;2023-04-29T00:32:56;10.52;;;4.30;;
59424;SDS011;45231;44.826;20.312;2023-04-29T00:35:22;10.23;;;4.90;;
59424;SDS011;45231;44.826;20.312;2023-04-29T00:37:48;9.77;;;4.65;;
59424;SDS011;45231;44.826;20.312;2023-04-29T00:40:15;9.43;;;4.70;;
59424;SDS011;45231;44.826;20.312;2023-04-29T00:42:41;10.48;;;4.93;;
59424;SDS011;45231;44.826;20.312;2023-04-29T00:45:08;10.95;;;4.70;;
59424;SDS011;45231;44.826;20.312;2023-04-29T00:47:35;11.52;;;5.13;;
59424;SDS011;45231;44.826;20.312;2023-04-29T00:50:01;10.60;;;4.68;;
59424;SDS011;45231;44.826;20.312;2023-04-29T00:52:28;11.18;;;4.97;;
59424;SDS011;45231;44.826;20.312;2023-04-29T00:54:58;11.07;;;5.68;;
59424;SDS011;45231;44.826;20.312;2023-04-29T00:57:24;12.43;;;5.50;;
59424;SDS011;45231;44.826;20.312;2023-04-29T00:59:57;11.07;;;5.78;;
59424;SDS011;45231;44.826;20.312;2023-04-29T01:02:23;12.57;;;5.70;;
59424;SDS011;45231;44.826;20.312;2023-04-29T01:04:50;12.10;;;5.65;;
59424;SDS011;45231;44.826;20.312;2023-04-29T01:07:18;10.10;;;4.75;;
59424;SDS011;45231;44.826;20.312;2023-04-29T01:12:48;11.32;;;4.47;;
59424;SDS011;45231;44.826;20.312;2023-04-29T01:15:21;8.65;;;4.20;;
59424;SDS011;45231;44.826;20.312;2023-04-29T01:17:54;10.00;;;4.45;;
59424;SDS011;45231;44.826;20.312;2023-04-29T01:20:21;10.70;;;4.60;;
59424;SDS011;45231;44.826;20.312;2023-04-29T01:22:47;8.07;;;4.13;;
59424;SDS011;45231;44.826;20.312;2023-04-29T01:25:13;8.35;;;4.15;;
59424;SDS011;45231;44.826;20.312;2023-04-29T01:30:30;8.45;;;4.10;;
59424;SDS011;45231;44.826;20.312;2023-04-29T01:33:13;8.73;;;4.00;;
59424;SDS011;45231;44.826;20.312;2023-04-29T01:41:04;9.75;;;4.10;;
59424;SDS011;45231;44.826;20.312;2023-04-29T01:43:34;7.20;;;3.50;;
59424;SDS011;45231;44.826;20.312;2023-04-29T01:46:03;9.13;;;3.70;;
59424;SDS011;45231;44.826;20.312;2023-04-29T01:48:30;8.18;;;3.70;;
59424;SDS011;45231;44.826;20.312;2023-04-29T01:50:56;8.50;;;3.58;;
59424;SDS011;45231;44.826;20.312;2023-04-29T01:53:22;9.10;;;3.60;;
59424;SDS011;45231;44.826;20.312;2023-04-29T01:55:48;8.50;;;3.80;;
59424;SDS011;45231;44.826;20.312;2023-04-29T01:58:14;8.23;;;3.67;;
59424;SDS011;45231;44.826;20.312;2023-04-29T02:00:40;7.90;;;3.20;;
59424;SDS011;45231;44.826;20.312;2023-04-29T02:03:06;8.40;;;3.63;;
59424;SDS011;45231;44.826;20.312;2023-04-29T02:05:32;11.40;;;3.87;;
59424;SDS011;45231;44.826;20.312;2023-04-29T02:07:59;7.63;;;3.33;;
59424;SDS011;45231;44.826;20.312;2023-04-29T02:10:26;8.17;;;3.83;;
59424;SDS011;45231;44.826;20.312;2023-04-29T02:12:52;8.13;;;4.03;;
59424;SDS011;45231;44.826;20.312;2023-04-29T02:15:19;7.40;;;3.70;;
59424;SDS011;45231;44.826;20.312;2023-04-29T02:17:45;8.52;;;3.53;;
59424;SDS011;45231;44.826;20.312;2023-04-29T02:20:11;7.55;;;3.90;;
59424;SDS011;45231;44.826;20.312;2023-04-29T02:22:37;7.80;;;4.07;;
59424;SDS011;45231;44.826;20.312;2023-04-29T02:25:04;8.40;;;3.42;;
59424;SDS011;45231;44.826;20.312;2023-04-29T02:27:30;8.25;;;3.35;;
59424;SDS011;45231;44.826;20.312;2023-04-29T02:29:56;9.00;;;4.22;;
59424;SDS011;45231;44.826;20.312;2023-04-29T02:32:23;8.02;;;3.78;;
59424;SDS011;45231;44.826;20.312;2023-04-29T02:34:49;7.07;;;3.70;;
59424;SDS011;45231;44.826;20.312;2023-04-29T02:37:15;8.40;;;3.63;;
59424;SDS011;45231;44.826;20.312;2023-04-29T02:39:42;8.27;;;4.35;;
59424;SDS011;45231;44.826;20.312;2023-04-29T02:42:08;8.57;;;4.18;;
59424;SDS011;45231;44.826;20.312;2023-04-29T02:44:34;29.77;;;5.00;;
59424;SDS011;45231;44.826;20.312;2023-04-29T02:47:00;14.07;;;3.87;;
59424;SDS011;45231;44.826;20.312;2023-04-29T02:49:26;12.13;;;3.47;;
59424;SDS011;45231;44.826;20.312;2023-04-29T02:51:52;8.38;;;4.55;;
59424;SDS011;45231;44.826;20.312;2023-04-29T02:54:18;9.90;;;3.65;;
59424;SDS011;45231;44.826;20.312;2023-04-29T02:56:44;8.10;;;4.10;;
59424;SDS011;45231;44.826;20.312;2023-04-29T02:59:10;8.38;;;3.58;;
59424;SDS011;45231;44.826;20.312;2023-04-29T03:01:36;9.27;;;3.73;;
59424;SDS011;45231;44.826;20.312;2023-04-29T03:04:03;8.27;;;3.60;;
59424;SDS011;45231;44.826;20.312;2023-04-29T03:06:29;8.18;;;3.85;;
59424;SDS011;45231;44.826;20.312;2023-04-29T03:08:55;9.75;;;3.70;;
59424;SDS011;45231;44.826;20.312;2023-04-29T03:11:21;10.43;;;3.85;;
59424;SDS011;45231;44.826;20.312;2023-04-29T03:13:51;7.40;;;3.50;;
59424;SDS011;45231;44.826;20.312;2023-04-29T03:16:17;8.13;;;3.40;;
59424;SDS011;45231;44.826;20.312;2023-04-29T03:18:43;7.75;;;3.50;;
59424;SDS011;45231;44.826;20.312;2023-04-29T03:21:09;10.00;;;3.58;;
59424;SDS011;45231;44.826;20.312;2023-04-29T03:23:35;9.88;;;3.38;;
59424;SDS011;45231;44.826;20.312;2023-04-29T03:26:03;7.38;;;3.50;;
59424;SDS011;45231;44.826;20.312;2023-04-29T03:28:29;9.02;;;3.53;;
59424;SDS011;45231;44.826;20.312;2023-04-29T03:30:55;6.45;;;3.42;;
59424;SDS011;45231;44.826;20.312;2023-04-29T03:33:23;15.73;;;5.82;;
59424;SDS011;45231;44.826;20.312;2023-04-29T03:35:49;17.75;;;7.25;;
59424;SDS011;45231;44.826;20.312;2023-04-29T03:38:15;11.27;;;4.72;;
59424;SDS011;45231;44.826;20.312;2023-04-29T03:40:41;11.88;;;4.90;;
59424;SDS011;45231;44.826;20.312;2023-04-29T03:43:07;10.15;;;5.90;;
59424;SDS011;45231;44.826;20.312;2023-04-29T03:45:33;16.90;;;8.98;;
59424;SDS011;45231;44.826;20.312;2023-04-29T03:47:59;14.45;;;9.00;;
59424;SDS011;45231;44.826;20.312;2023-04-29T03:50:27;16.58;;;8.48;;
59424;SDS011;45231;44.826;20.312;2023-04-29T03:52:53;16.08;;;9.52;;
59424;SDS011;45231;44.826;20.312;2023-04-29T03:55:19;19.60;;;10.55;;
59424;SDS011;45231;44.826;20.312;2023-04-29T03:57:45;19.13;;;10.93;;
59424;SDS011;45231;44.826;20.312;2023-04-29T04:00:11;18.70;;;10.83;;
59424;SDS011;45231;44.826;20.312;2023-04-29T04:02:37;15.20;;;10.10;;
59424;SDS011;45231;44.826;20.312;2023-04-29T04:05:03;21.17;;;10.77;;
59424;SDS011;45231;44.826;20.312;2023-04-29T04:07:29;16.52;;;9.93;;
59424;SDS011;45231;44.826;20.312;2023-04-29T04:09:55;16.30;;;10.37;;
59424;SDS011;45231;44.826;20.312;2023-04-29T04:12:21;21.33;;;11.88;;
59424;SDS011;45231;44.826;20.312;2023-04-29T04:14:47;20.20;;;11.23;;
59424;SDS011;45231;44.826;20.312;2023-04-29T04:17:14;19.33;;;11.07;;
59424;SDS011;45231;44.826;20.312;2023-04-29T04:19:40;19.35;;;10.70;;
59424;SDS011;45231;44.826;20.312;2023-04-29T04:22:06;23.63;;;12.25;;
59424;SDS011;45231;44.826;20.312;2023-04-29T04:24:32;19.65;;;12.38;;
59424;SDS011;45231;44.826;20.312;2023-04-29T04:26:58;19.17;;;11.82;;
59424;SDS011;45231;44.826;20.312;2023-04-29T04:29:24;27.15;;;13.02;;
59424;SDS011;45231;44.826;20.312;2023-04-29T04:31:51;17.73;;;12.03;;
59424;SDS011;45231;44.826;20.312;2023-04-29T04:34:17;19.20;;;11.50;;
59424;SDS011;45231;44.826;20.312;2023-04-29T04:36:43;22.38;;;11.70;;
59424;SDS011;45231;44.826;20.312;2023-04-29T04:39:09;20.95;;;12.27;;
59424;SDS011;45231;44.826;20.312;2023-04-29T04:41:35;24.95;;;12.95;;
59424;SDS011;45231;44.826;20.312;2023-04-29T04:44:01;23.00;;;12.10;;
59424;SDS011;45231;44.826;20.312;2023-04-29T04:46:28;23.30;;;12.77;;
59424;SDS011;45231;44.826;20.312;2023-04-29T04:48:54;20.87;;;13.13;;
59424;SDS011;45231;44.826;20.312;2023-04-29T04:51:20;18.00;;;12.03;;
59424;SDS011;45231;44.826;20.312;2023-04-29T04:53:46;19.05;;;12.25;;
59424;SDS011;45231;44.826;20.312;2023-04-29T04:56:12;19.67;;;12.47;;
59424;SDS011;45231;44.826;20.312;2023-04-29T04:58:38;20.50;;;11.90;;
59424;SDS011;45231;44.826;20.312;2023-04-29T05:01:04;20.55;;;12.05;;
59424;SDS011;45231;44.826;20.312;2023-04-29T05:03:30;19.87;;;11.53;;
59424;SDS011;45231;44.826;20.312;2023-04-29T05:05:57;17.33;;;11.18;;
59424;SDS011;45231;44.826;20.312;2023-04-29T05:10:49;15.38;;;8.02;;
59424;SDS011;45231;44.826;20.312;2023-04-29T05:13:15;15.35;;;7.85;;
59424;SDS011;45231;44.826;20.312;2023-04-29T05:15:42;17.42;;;7.35;;
59424;SDS011;45231;44.826;20.312;2023-04-29T05:18:08;15.15;;;7.57;;
59424;SDS011;45231;44.826;20.312;2023-04-29T05:20:34;12.55;;;7.43;;
59424;SDS011;45231;44.826;20.312;2023-04-29T05:23:01;12.88;;;7.65;;
59424;SDS011;45231;44.826;20.312;2023-04-29T05:25:27;15.27;;;8.30;;
59424;SDS011;45231;44.826;20.312;2023-04-29T05:27:53;16.13;;;8.73;;
59424;SDS011;45231;44.826;20.312;2023-04-29T05:30:19;13.68;;;7.78;;
59424;SDS011;45231;44.826;20.312;2023-04-29T05:32:46;15.18;;;7.70;;
59424;SDS011;45231;44.826;20.312;2023-04-29T05:35:13;19.92;;;8.07;;
59424;SDS011;45231;44.826;20.312;2023-04-29T05:37:39;14.85;;;8.68;;
59424;SDS011;45231;44.826;20.312;2023-04-29T05:40:05;16.23;;;9.02;;
59424;SDS011;45231;44.826;20.312;2023-04-29T05:42:32;18.65;;;8.70;;
59424;SDS011;45231;44.826;20.312;2023-04-29T05:44:58;20.55;;;8.63;;
59424;SDS011;45231;44.826;20.312;2023-04-29T05:47:24;18.42;;;7.32;;
59424;SDS011;45231;44.826;20.312;2023-04-29T05:49:50;16.80;;;8.88;;
59424;SDS011;45231;44.826;20.312;2023-04-29T05:52:16;14.15;;;7.43;;
59424;SDS011;45231;44.826;20.312;2023-04-29T05:54:42;18.15;;;7.22;;
59424;SDS011;45231;44.826;20.312;2023-04-29T05:57:08;18.90;;;6.90;;
59424;SDS011;45231;44.826;20.312;2023-04-29T05:59:35;14.07;;;7.03;;
59424;SDS011;45231;44.826;20.312;2023-04-29T06:02:01;14.25;;;7.05;;
59424;SDS011;45231;44.826;20.312;2023-04-29T06:04:27;16.25;;;7.47;;
59424;SDS011;45231;44.826;20.312;2023-04-29T06:06:54;16.08;;;7.53;;
59424;SDS011;45231;44.826;20.312;2023-04-29T06:09:21;13.02;;;7.53;;
59424;SDS011;45231;44.826;20.312;2023-04-29T06:11:49;16.70;;;7.60;;
59424;SDS011;45231;44.826;20.312;2023-04-29T06:14:16;12.48;;;7.40;;
59424;SDS011;45231;44.826;20.312;2023-04-29T06:16:42;13.57;;;6.93;;
59424;SDS011;45231;44.826;20.312;2023-04-29T06:19:08;13.70;;;7.28;;
59424;SDS011;45231;44.826;20.312;2023-04-29T06:21:34;14.95;;;8.02;;
59424;SDS011;45231;44.826;20.312;2023-04-29T06:24:00;15.63;;;7.50;;
59424;SDS011;45231;44.826;20.312;2023-04-29T06:26:27;14.57;;;8.10;;
59424;SDS011;45231;44.826;20.312;2023-04-29T06:28:53;15.82;;;8.15;;
59424;SDS011;45231;44.826;20.312;2023-04-29T06:31:19;15.73;;;8.70;;
59424;SDS011;45231;44.826;20.312;2023-04-29T06:33:45;14.52;;;7.95;;
59424;SDS011;45231;44.826;20.312;2023-04-29T06:36:11;15.50;;;8.75;;
59424;SDS011;45231;44.826;20.312;2023-04-29T06:38:37;18.63;;;8.55;;
59424;SDS011;45231;44.826;20.312;2023-04-29T06:41:03;11.73;;;7.40;;
59424;SDS011;45231;44.826;20.312;2023-04-29T06:43:30;14.95;;;7.25;;
59424;SDS011;45231;44.826;20.312;2023-04-29T06:45:56;13.15;;;6.82;;
59424;SDS011;45231;44.826;20.312;2023-04-29T06:48:22;15.32;;;6.72;;
59424;SDS011;45231;44.826;20.312;2023-04-29T06:50:51;12.07;;;7.15;;
59424;SDS011;45231;44.826;20.312;2023-04-29T06:53:18;14.18;;;7.45;;
59424;SDS011;45231;44.826;20.312;2023-04-29T06:55:44;12.35;;;7.18;;
59424;SDS011;45231;44.826;20.312;2023-04-29T06:58:14;13.48;;;7.10;;
59424;SDS011;45231;44.826;20.312;2023-04-29T07:00:43;17.70;;;7.50;;
59424;SDS011;45231;44.826;20.312;2023-04-29T07:03:10;16.35;;;6.70;;
59424;SDS011;45231;44.826;20.312;2023-04-29T07:05:36;11.48;;;6.55;;
59424;SDS011;45231;44.826;20.312;2023-04-29T07:08:06;15.02;;;6.53;;
59424;SDS011;45231;44.826;20.312;2023-04-29T07:10:32;14.27;;;7.00;;
59424;SDS011;45231;44.826;20.312;2023-04-29T07:12:59;11.57;;;7.05;;
59424;SDS011;45231;44.826;20.312;2023-04-29T07:15:25;11.77;;;5.97;;
59424;SDS011;45231;44.826;20.312;2023-04-29T07:20:17;11.30;;;5.18;;
59424;SDS011;45231;44.826;20.312;2023-04-29T07:22:44;16.50;;;6.55;;
59424;SDS011;45231;44.826;20.312;2023-04-29T07:25:10;12.07;;;6.40;;
59424;SDS011;45231;44.826;20.312;2023-04-29T07:27:36;16.75;;;6.15;;
59424;SDS011;45231;44.826;20.312;2023-04-29T07:30:03;14.88;;;6.68;;
59424;SDS011;45231;44.826;20.312;2023-04-29T07:32:30;13.65;;;6.40;;
59424;SDS011;45231;44.826;20.312;2023-04-29T07:34:56;12.05;;;5.88;;
59424;SDS011;45231;44.826;20.312;2023-04-29T07:37:22;11.68;;;5.97;;
59424;SDS011;45231;44.826;20.312;2023-04-29T07:39:49;12.48;;;6.55;;
59424;SDS011;45231;44.826;20.312;2023-04-29T07:42:15;11.90;;;5.97;;
59424;SDS011;45231;44.826;20.312;2023-04-29T07:44:41;15.88;;;6.53;;
59424;SDS011;45231;44.826;20.312;2023-04-29T07:47:09;13.07;;;6.45;;
59424;SDS011;45231;44.826;20.312;2023-04-29T07:49:35;13.00;;;5.75;;
59424;SDS011;45231;44.826;20.312;2023-04-29T07:52:01;11.40;;;5.93;;
59424;SDS011;45231;44.826;20.312;2023-04-29T07:54:27;12.55;;;5.78;;
59424;SDS011;45231;44.826;20.312;2023-04-29T07:56:53;13.85;;;5.82;;
59424;SDS011;45231;44.826;20.312;2023-04-29T07:59:20;12.30;;;5.93;;
59424;SDS011;45231;44.826;20.312;2023-04-29T08:01:46;11.90;;;6.30;;
59424;SDS011;45231;44.826;20.312;2023-04-29T08:04:12;11.02;;;5.85;;
59424;SDS011;45231;44.826;20.312;2023-04-29T08:06:38;11.75;;;5.72;;
59424;SDS011;45231;44.826;20.312;2023-04-29T08:09:06;15.32;;;6.43;;
59424;SDS011;45231;44.826;20.312;2023-04-29T08:11:32;10.55;;;5.93;;
59424;SDS011;45231;44.826;20.312;2023-04-29T08:13:58;13.40;;;5.45;;
59424;SDS011;45231;44.826;20.312;2023-04-29T08:16:24;15.13;;;6.03;;
59424;SDS011;45231;44.826;20.312;2023-04-29T08:21:17;10.15;;;4.65;;
59424;SDS011;45231;44.826;20.312;2023-04-29T08:23:43;8.88;;;4.50;;
59424;SDS011;45231;44.826;20.312;2023-04-29T08:26:09;8.70;;;4.72;;
59424;SDS011;45231;44.826;20.312;2023-04-29T08:28:37;10.75;;;4.80;;
59424;SDS011;45231;44.826;20.312;2023-04-29T08:31:03;9.32;;;4.65;;
59424;SDS011;45231;44.826;20.312;2023-04-29T08:33:34;10.40;;;4.68;;
59424;SDS011;45231;44.826;20.312;2023-04-29T08:36:01;12.18;;;4.68;;
59424;SDS011;45231;44.826;20.312;2023-04-29T08:38:30;10.55;;;4.47;;
59424;SDS011;45231;44.826;20.312;2023-04-29T08:40:57;10.13;;;4.25;;
59424;SDS011;45231;44.826;20.312;2023-04-29T08:43:23;9.63;;;4.30;;
59424;SDS011;45231;44.826;20.312;2023-04-29T08:45:49;8.90;;;5.00;;
59424;SDS011;45231;44.826;20.312;2023-04-29T08:48:15;12.82;;;4.45;;
59424;SDS011;45231;44.826;20.312;2023-04-29T08:50:42;9.45;;;4.00;;
59424;SDS011;45231;44.826;20.312;2023-04-29T08:53:09;10.88;;;4.40;;
59424;SDS011;45231;44.826;20.312;2023-04-29T08:55:38;11.93;;;5.35;;
59424;SDS011;45231;44.826;20.312;2023-04-29T08:58:05;10.05;;;4.28;;
59424;SDS011;45231;44.826;20.312;2023-04-29T09:02:58;9.93;;;4.78;;
59424;SDS011;45231;44.826;20.312;2023-04-29T09:05:25;9.80;;;5.10;;
59424;SDS011;45231;44.826;20.312;2023-04-29T09:10:17;11.48;;;5.40;;
59424;SDS011;45231;44.826;20.312;2023-04-29T09:12:43;10.55;;;4.65;;
59424;SDS011;45231;44.826;20.312;2023-04-29T09:15:10;12.02;;;5.20;;
59424;SDS011;45231;44.826;20.312;2023-04-29T09:17:41;10.15;;;5.25;;
59424;SDS011;45231;44.826;20.312;2023-04-29T09:20:40;8.82;;;4.65;;
59424;SDS011;45231;44.826;20.312;2023-04-29T09:23:00;8.05;;;4.35;;
59424;SDS011;45231;44.826;20.312;2023-04-29T09:25:30;8.88;;;4.13;;
59424;SDS011;45231;44.826;20.312;2023-04-29T09:27:56;9.32;;;4.03;;
59424;SDS011;45231;44.826;20.312;2023-04-29T09:30:22;8.70;;;4.00;;
59424;SDS011;45231;44.826;20.312;2023-04-29T09:33:04;8.80;;;3.58;;
59424;SDS011;45231;44.826;20.312;2023-04-29T09:35:30;9.30;;;3.55;;
59424;SDS011;45231;44.826;20.312;2023-04-29T09:38:29;10.90;;;4.10;;
59424;SDS011;45231;44.826;20.312;2023-04-29T09:40:49;8.50;;;3.95;;
59424;SDS011;45231;44.826;20.312;2023-04-29T09:43:16;9.48;;;3.92;;
59424;SDS011;45231;44.826;20.312;2023-04-29T09:45:46;13.15;;;4.35;;
59424;SDS011;45231;44.826;20.312;2023-04-29T09:48:12;9.43;;;3.70;;
59424;SDS011;45231;44.826;20.312;2023-04-29T09:50:40;9.05;;;4.35;;
59424;SDS011;45231;44.826;20.312;2023-04-29T09:53:10;15.95;;;4.32;;
59424;SDS011;45231;44.826;20.312;2023-04-29T09:58:33;9.18;;;3.90;;
59424;SDS011;45231;44.826;20.312;2023-04-29T10:01:04;8.75;;;3.60;;
59424;SDS011;45231;44.826;20.312;2023-04-29T10:03:34;8.07;;;3.50;;
59424;SDS011;45231;44.826;20.312;2023-04-29T10:06:01;8.43;;;3.67;;
59424;SDS011;45231;44.826;20.312;2023-04-29T10:08:27;9.10;;;3.17;;
59424;SDS011;45231;44.826;20.312;2023-04-29T10:13:24;7.20;;;2.95;;
59424;SDS011;45231;44.826;20.312;2023-04-29T10:15:59;7.03;;;2.88;;
59424;SDS011;45231;44.826;20.312;2023-04-29T10:18:29;8.15;;;3.05;;
59424;SDS011;45231;44.826;20.312;2023-04-29T10:20:55;11.52;;;2.80;;
59424;SDS011;45231;44.826;20.312;2023-04-29T10:23:22;8.07;;;2.90;;
59424;SDS011;45231;44.826;20.312;2023-04-29T10:25:49;7.05;;;3.20;;
59424;SDS011;45231;44.826;20.312;2023-04-29T10:28:17;7.28;;;2.90;;
59424;SDS011;45231;44.826;20.312;2023-04-29T10:33:10;6.78;;;3.05;;
59424;SDS011;45231;44.826;20.312;2023-04-29T10:35:36;6.68;;;2.72;;
59424;SDS011;45231;44.826;20.312;2023-04-29T10:38:49;6.10;;;2.55;;
59424;SDS011;45231;44.826;20.312;2023-04-29T10:40:49;9.63;;;2.85;;
59424;SDS011;45231;44.826;20.312;2023-04-29T10:43:21;7.25;;;2.70;;
59424;SDS011;45231;44.826;20.312;2023-04-29T10:45:48;7.40;;;3.00;;
59424;SDS011;45231;44.826;20.312;2023-04-29T10:48:14;6.93;;;2.72;;
59424;SDS011;45231;44.826;20.312;2023-04-29T10:53:14;6.22;;;2.50;;
59424;SDS011;45231;44.826;20.312;2023-04-29T10:55:41;7.78;;;2.92;;
59424;SDS011;45231;44.826;20.312;2023-04-29T11:00:52;6.00;;;2.35;;
59424;SDS011;45231;44.826;20.312;2023-04-29T11:06:23;13.45;;;3.17;;
59424;SDS011;45231;44.826;20.312;2023-04-29T11:09:00;8.85;;;3.30;;
59424;SDS011;45231;44.826;20.312;2023-04-29T11:11:46;6.03;;;2.53;;
59424;SDS011;45231;44.826;20.312;2023-04-29T11:14:22;6.35;;;3.00;;
59424;SDS011;45231;44.826;20.312;2023-04-29T11:16:52;6.63;;;2.67;;
59424;SDS011;45231;44.826;20.312;2023-04-29T11:19:19;6.43;;;2.83;;
59424;SDS011;45231;44.826;20.312;2023-04-29T11:21:45;7.28;;;3.08;;
59424;SDS011;45231;44.826;20.312;2023-04-29T11:24:12;7.72;;;3.30;;
59424;SDS011;45231;44.826;20.312;2023-04-29T11:26:40;8.23;;;2.55;;
59424;SDS011;45231;44.826;20.312;2023-04-29T11:29:07;6.05;;;2.80;;
59424;SDS011;45231;44.826;20.312;2023-04-29T11:31:35;7.80;;;2.75;;
59424;SDS011;45231;44.826;20.312;2023-04-29T11:34:02;6.75;;;2.58;;
59424;SDS011;45231;44.826;20.312;2023-04-29T11:36:30;9.52;;;2.88;;
59424;SDS011;45231;44.826;20.312;2023-04-29T11:38:56;8.13;;;2.40;;
59424;SDS011;45231;44.826;20.312;2023-04-29T11:41:25;6.75;;;2.58;;
59424;SDS011;45231;44.826;20.312;2023-04-29T11:43:55;6.18;;;2.53;;
59424;SDS011;45231;44.826;20.312;2023-04-29T11:46:25;5.95;;;2.67;;
59424;SDS011;45231;44.826;20.312;2023-04-29T11:48:52;8.15;;;2.60;;
59424;SDS011;45231;44.826;20.312;2023-04-29T11:53:45;11.73;;;2.83;;
59424;SDS011;45231;44.826;20.312;2023-04-29T11:56:11;8.77;;;2.70;;
59424;SDS011;45231;44.826;20.312;2023-04-29T11:58:38;4.95;;;2.22;;
59424;SDS011;45231;44.826;20.312;2023-04-29T12:01:04;8.75;;;2.47;;
59424;SDS011;45231;44.826;20.312;2023-04-29T12:03:31;11.00;;;3.05;;
59424;SDS011;45231;44.826;20.312;2023-04-29T12:05:58;8.23;;;2.60;;
59424;SDS011;45231;44.826;20.312;2023-04-29T12:08:25;15.00;;;3.28;;
59424;SDS011;45231;44.826;20.312;2023-04-29T12:10:53;7.68;;;2.60;;
59424;SDS011;45231;44.826;20.312;2023-04-29T12:13:21;8.05;;;2.60;;
59424;SDS011;45231;44.826;20.312;2023-04-29T12:15:48;10.02;;;3.03;;
59424;SDS011;45231;44.826;20.312;2023-04-29T12:18:16;8.27;;;2.72;;
59424;SDS011;45231;44.826;20.312;2023-04-29T12:20:42;9.18;;;2.58;;
59424;SDS011;45231;44.826;20.312;2023-04-29T12:23:12;7.70;;;2.50;;
59424;SDS011;45231;44.826;20.312;2023-04-29T12:25:39;8.43;;;2.50;;
59424;SDS011;45231;44.826;20.312;2023-04-29T12:28:12;12.80;;;3.10;;
59424;SDS011;45231;44.826;20.312;2023-04-29T12:30:39;6.45;;;2.35;;
59424;SDS011;45231;44.826;20.312;2023-04-29T12:33:08;7.07;;;2.55;;
59424;SDS011;45231;44.826;20.312;2023-04-29T12:35:35;8.85;;;2.60;;
59424;SDS011;45231;44.826;20.312;2023-04-29T12:38:01;7.90;;;2.75;;
59424;SDS011;45231;44.826;20.312;2023-04-29T12:40:28;5.60;;;2.45;;
59424;SDS011;45231;44.826;20.312;2023-04-29T12:45:30;7.57;;;2.30;;
59424;SDS011;45231;44.826;20.312;2023-04-29T12:47:56;6.95;;;2.55;;
59424;SDS011;45231;44.826;20.312;2023-04-29T12:50:28;7.30;;;2.75;;
59424;SDS011;45231;44.826;20.312;2023-04-29T12:52:55;12.00;;;2.78;;
59424;SDS011;45231;44.826;20.312;2023-04-29T12:55:23;7.82;;;2.88;;
59424;SDS011;45231;44.826;20.312;2023-04-29T12:57:49;6.88;;;2.30;;
59424;SDS011;45231;44.826;20.312;2023-04-29T13:00:16;7.93;;;2.45;;
59424;SDS011;45231;44.826;20.312;2023-04-29T13:02:44;7.80;;;2.70;;
59424;SDS011;45231;44.826;20.312;2023-04-29T13:05:14;8.10;;;2.60;;
59424;SDS011;45231;44.826;20.312;2023-04-29T13:07:40;8.40;;;2.63;;
59424;SDS011;45231;44.826;20.312;2023-04-29T13:10:07;8.35;;;2.97;;
59424;SDS011;45231;44.826;20.312;2023-04-29T13:12:33;7.75;;;2.40;;
59424;SDS011;45231;44.826;20.312;2023-04-29T13:15:00;6.85;;;2.65;;
59424;SDS011;45231;44.826;20.312;2023-04-29T13:17:26;5.68;;;2.30;;
59424;SDS011;45231;44.826;20.312;2023-04-29T13:19:53;5.32;;;2.65;;
59424;SDS011;45231;44.826;20.312;2023-04-29T13:22:20;7.18;;;2.75;;
59424;SDS011;45231;44.826;20.312;2023-04-29T13:27:13;7.75;;;2.92;;
59424;SDS011;45231;44.826;20.312;2023-04-29T13:32:05;5.88;;;2.97;;
59424;SDS011;45231;44.826;20.312;2023-04-29T13:34:32;5.60;;;2.63;;
59424;SDS011;45231;44.826;20.312;2023-04-29T13:36:59;7.38;;;2.65;;
59424;SDS011;45231;44.826;20.312;2023-04-29T13:39:25;8.25;;;2.70;;
59424;SDS011;45231;44.826;20.312;2023-04-29T13:44:18;7.13;;;2.60;;
59424;SDS011;45231;44.826;20.312;2023-04-29T13:49:10;8.27;;;3.20;;
59424;SDS011;45231;44.826;20.312;2023-04-29T13:51:36;8.05;;;2.95;;
59424;SDS011;45231;44.826;20.312;2023-04-29T13:54:03;13.00;;;3.10;;
59424;SDS011;45231;44.826;20.312;2023-04-29T13:58:54;7.22;;;2.65;;
59424;SDS011;45231;44.826;20.312;2023-04-29T14:03:47;7.35;;;2.90;;
59424;SDS011;45231;44.826;20.312;2023-04-29T14:06:14;8.10;;;3.03;;
59424;SDS011;45231;44.826;20.312;2023-04-29T14:08:40;6.85;;;2.90;;
59424;SDS011;45231;44.826;20.312;2023-04-29T14:13:32;11.82;;;3.10;;
59424;SDS011;45231;44.826;20.312;2023-04-29T14:18:26;7.60;;;3.05;;
59424;SDS011;45231;44.826;20.312;2023-04-29T14:20:54;7.78;;;3.10;;
59424;SDS011;45231;44.826;20.312;2023-04-29T14:23:20;12.85;;;3.63;;
59424;SDS011;45231;44.826;20.312;2023-04-29T14:25:46;8.32;;;3.00;;
59424;SDS011;45231;44.826;20.312;2023-04-29T14:28:12;6.95;;;2.88;;
59424;SDS011;45231;44.826;20.312;2023-04-29T14:30:39;5.93;;;2.90;;
59424;SDS011;45231;44.826;20.312;2023-04-29T14:33:05;11.07;;;3.17;;
59424;SDS011;45231;44.826;20.312;2023-04-29T14:35:32;9.45;;;3.42;;
59424;SDS011;45231;44.826;20.312;2023-04-29T14:37:58;7.75;;;3.40;;
59424;SDS011;45231;44.826;20.312;2023-04-29T14:40:24;6.90;;;3.40;;
59424;SDS011;45231;44.826;20.312;2023-04-29T14:45:16;8.75;;;3.45;;
59424;SDS011;45231;44.826;20.312;2023-04-29T14:47:42;7.60;;;3.38;;
59424;SDS011;45231;44.826;20.312;2023-04-29T14:50:08;6.45;;;3.05;;
59424;SDS011;45231;44.826;20.312;2023-04-29T14:52:35;7.75;;;3.22;;
59424;SDS011;45231;44.826;20.312;2023-04-29T14:55:01;7.15;;;3.10;;
59424;SDS011;45231;44.826;20.312;2023-04-29T14:57:27;6.75;;;3.42;;
59424;SDS011;45231;44.826;20.312;2023-04-29T14:59:54;7.78;;;3.55;;
59424;SDS011;45231;44.826;20.312;2023-04-29T15:04:46;9.60;;;3.22;;
59424;SDS011;45231;44.826;20.312;2023-04-29T15:07:13;6.75;;;3.17;;
59424;SDS011;45231;44.826;20.312;2023-04-29T15:09:40;7.85;;;3.30;;
59424;SDS011;45231;44.826;20.312;2023-04-29T15:12:06;8.43;;;3.38;;
59424;SDS011;45231;44.826;20.312;2023-04-29T15:16:58;7.22;;;3.17;;
59424;SDS011;45231;44.826;20.312;2023-04-29T15:19:24;6.85;;;3.42;;
59424;SDS011;45231;44.826;20.312;2023-04-29T15:21:51;8.65;;;3.67;;
59424;SDS011;45231;44.826;20.312;2023-04-29T15:24:17;8.70;;;2.97;;
59424;SDS011;45231;44.826;20.312;2023-04-29T15:26:44;8.55;;;3.47;;
59424;SDS011;45231;44.826;20.312;2023-04-29T15:29:10;6.25;;;2.83;;
59424;SDS011;45231;44.826;20.312;2023-04-29T15:31:37;8.27;;;3.22;;
59424;SDS011;45231;44.826;20.312;2023-04-29T15:34:03;5.95;;;3.00;;
59424;SDS011;45231;44.826;20.312;2023-04-29T15:36:29;7.55;;;3.50;;